sensor_id;sensor_type;location;lat;lon;timestamp;P1;durP1;ratioP1;P2;durP2;ratioP2
74483;SDS011;62942;52.462;10.846;2024-02-16T00:00:23;3.9;;;7.5;;
74483;SDS011;62942;52.462;10.846;2024-02-16T00:01:23;3.8;;;6.7;;
74483;SDS011;62942;52.462;10.846;2024-02-16T00:02:33;3.7;;;6.2;;
74483;SDS011;62942;52.462;10.846;2024-02-16T00:03:43;3.8;;;6;;
74483;SDS011;62942;52.462;10.846;2024-02-16T00:04:43;4;;;6.8;;
74483;SDS011;62942;52.462;10.846;2024-02-16T00:05:53;3.7;;;5.2;;
74483;SDS011;62942;52.462;10.846;2024-02-16T00:07:03;4.1;;;7.2;;
74483;SDS011;62942;52.462;10.846;2024-02-16T00:08:13;4;;;6.3;;
74483;SDS011;62942;52.462;10.846;2024-02-16T00:09:13;3.8;;;5.7;;
74483;SDS011;62942;52.462;10.846;2024-02-16T00:10:23;4;;;6.9;;
74483;SDS011;62942;52.462;10.846;2024-02-16T00:11:23;4.1;;;7.2;;
74483;SDS011;62942;52.462;10.846;2024-02-16T00:12:33;4.2;;;6;;
74483;SDS011;62942;52.462;10.846;2024-02-16T00:13:33;4.1;;;6.6;;
74483;SDS011;62942;52.462;10.846;2024-02-16T00:14:43;4;;;6;;
74483;SDS011;62942;52.462;10.846;2024-02-16T00:15:53;3.9;;;6.3;;
74483;SDS011;62942;52.462;10.846;2024-02-16T00:16:53;3.9;;;8.3;;
74483;SDS011;62942;52.462;10.846;2024-02-16T00:17:53;3.9;;;6.9;;
74483;SDS011;62942;52.462;10.846;2024-02-16T00:19:03;3.8;;;6.8;;
74483;SDS011;62942;52.462;10.846;2024-02-16T00:20:13;3.8;;;6.2;;
74483;SDS011;62942;52.462;10.846;2024-02-16T00:21:23;4;;;6.5;;
74483;SDS011;62942;52.462;10.846;2024-02-16T00:22:23;3.7;;;6.2;;
74483;SDS011;62942;52.462;10.846;2024-02-16T00:23:33;3.7;;;7.5;;
74483;SDS011;62942;52.462;10.846;2024-02-16T00:24:43;3.9;;;7.2;;
74483;SDS011;62942;52.462;10.846;2024-02-16T00:25:53;3.6;;;7;;
74483;SDS011;62942;52.462;10.846;2024-02-16T00:27:03;3.7;;;6.4;;
74483;SDS011;62942;52.462;10.846;2024-02-16T00:28:13;3.7;;;6.2;;
74483;SDS011;62942;52.462;10.846;2024-02-16T00:29:23;3.8;;;6.6;;
74483;SDS011;62942;52.462;10.846;2024-02-16T00:30:33;3.8;;;8.1;;
74483;SDS011;62942;52.462;10.846;2024-02-16T00:31:43;3.7;;;6.6;;
74483;SDS011;62942;52.462;10.846;2024-02-16T00:32:43;3.6;;;6.5;;
74483;SDS011;62942;52.462;10.846;2024-02-16T00:33:53;3.6;;;7.6;;
74483;SDS011;62942;52.462;10.846;2024-02-16T00:35:03;3.8;;;6.4;;
74483;SDS011;62942;52.462;10.846;2024-02-16T00:36:03;3.7;;;6.1;;
74483;SDS011;62942;52.462;10.846;2024-02-16T00:37:13;3.6;;;6;;
74483;SDS011;62942;52.462;10.846;2024-02-16T00:38:13;3.5;;;6;;
74483;SDS011;62942;52.462;10.846;2024-02-16T00:39:13;3.5;;;6.6;;
74483;SDS011;62942;52.462;10.846;2024-02-16T00:40:23;3.5;;;6.6;;
74483;SDS011;62942;52.462;10.846;2024-02-16T00:41:23;3.3;;;6.9;;
74483;SDS011;62942;52.462;10.846;2024-02-16T00:42:33;3.6;;;6.8;;
74483;SDS011;62942;52.462;10.846;2024-02-16T00:43:33;3.6;;;6.8;;
74483;SDS011;62942;52.462;10.846;2024-02-16T00:44:43;3.5;;;6.2;;
74483;SDS011;62942;52.462;10.846;2024-02-16T00:45:53;3.6;;;6.9;;
74483;SDS011;62942;52.462;10.846;2024-02-16T00:47:03;3.3;;;5.7;;
74483;SDS011;62942;52.462;10.846;2024-02-16T00:48:03;3.2;;;5.3;;
74483;SDS011;62942;52.462;10.846;2024-02-16T00:49:03;3.5;;;6.5;;
74483;SDS011;62942;52.462;10.846;2024-02-16T00:50:03;3.7;;;8;;
74483;SDS011;62942;52.462;10.846;2024-02-16T00:51:13;3.5;;;6;;
74483;SDS011;62942;52.462;10.846;2024-02-16T00:52:13;3.4;;;5.6;;
74483;SDS011;62942;52.462;10.846;2024-02-16T00:53:23;3.2;;;5.4;;
74483;SDS011;62942;52.462;10.846;2024-02-16T00:54:33;3.2;;;6;;
74483;SDS011;62942;52.462;10.846;2024-02-16T00:55:43;3.1;;;6.7;;
74483;SDS011;62942;52.462;10.846;2024-02-16T00:56:43;3.3;;;6.3;;
74483;SDS011;62942;52.462;10.846;2024-02-16T00:57:43;3.1;;;5.3;;
74483;SDS011;62942;52.462;10.846;2024-02-16T00:58:43;3.2;;;5;;
74483;SDS011;62942;52.462;10.846;2024-02-16T00:59:43;3.2;;;8.3;;
74483;SDS011;62942;52.462;10.846;2024-02-16T01:00:53;2.9;;;5.1;;
74483;SDS011;62942;52.462;10.846;2024-02-16T01:01:53;3.1;;;8.1;;
74483;SDS011;62942;52.462;10.846;2024-02-16T01:03:03;3.1;;;5.1;;
74483;SDS011;62942;52.462;10.846;2024-02-16T01:04:13;3.2;;;6.5;;
74483;SDS011;62942;52.462;10.846;2024-02-16T01:05:23;3.2;;;6.5;;
74483;SDS011;62942;52.462;10.846;2024-02-16T01:06:23;3.4;;;6.6;;
74483;SDS011;62942;52.462;10.846;2024-02-16T01:07:33;3.1;;;5;;
74483;SDS011;62942;52.462;10.846;2024-02-16T01:08:33;3.2;;;6.5;;
74483;SDS011;62942;52.462;10.846;2024-02-16T01:09:43;3.2;;;6.1;;
74483;SDS011;62942;52.462;10.846;2024-02-16T01:10:53;3.2;;;5.2;;
74483;SDS011;62942;52.462;10.846;2024-02-16T01:11:53;3.3;;;6.6;;
74483;SDS011;62942;52.462;10.846;2024-02-16T01:12:53;3.1;;;5.5;;
74483;SDS011;62942;52.462;10.846;2024-02-16T01:14:03;3;;;6;;
74483;SDS011;62942;52.462;10.846;2024-02-16T01:15:13;3;;;5.1;;
74483;SDS011;62942;52.462;10.846;2024-02-16T01:16:13;3.1;;;6.4;;
74483;SDS011;62942;52.462;10.846;2024-02-16T01:17:23;3.2;;;7.2;;
74483;SDS011;62942;52.462;10.846;2024-02-16T01:18:33;3.3;;;7.1;;
74483;SDS011;62942;52.462;10.846;2024-02-16T01:19:33;3;;;6.9;;
74483;SDS011;62942;52.462;10.846;2024-02-16T01:20:43;3.2;;;6.9;;
74483;SDS011;62942;52.462;10.846;2024-02-16T01:21:43;3;;;5.7;;
74483;SDS011;62942;52.462;10.846;2024-02-16T01:22:53;3.2;;;5.9;;
74483;SDS011;62942;52.462;10.846;2024-02-16T01:23:53;3.1;;;6.9;;
74483;SDS011;62942;52.462;10.846;2024-02-16T01:25:03;2.9;;;4.3;;
74483;SDS011;62942;52.462;10.846;2024-02-16T01:26:03;3.3;;;6.5;;
74483;SDS011;62942;52.462;10.846;2024-02-16T01:27:13;3.3;;;6.1;;
74483;SDS011;62942;52.462;10.846;2024-02-16T01:28:13;3;;;5.7;;
74483;SDS011;62942;52.462;10.846;2024-02-16T01:29:23;3;;;7.3;;
74483;SDS011;62942;52.462;10.846;2024-02-16T01:30:33;3.2;;;6.8;;
74483;SDS011;62942;52.462;10.846;2024-02-16T01:31:33;3.1;;;4.7;;
74483;SDS011;62942;52.462;10.846;2024-02-16T01:32:43;3.1;;;6.3;;
74483;SDS011;62942;52.462;10.846;2024-02-16T01:33:43;3;;;5.7;;
74483;SDS011;62942;52.462;10.846;2024-02-16T01:34:53;3.2;;;7;;
74483;SDS011;62942;52.462;10.846;2024-02-16T01:36:03;3.3;;;5.3;;
74483;SDS011;62942;52.462;10.846;2024-02-16T01:37:03;2.7;;;7.3;;
74483;SDS011;62942;52.462;10.846;2024-02-16T01:38:13;2.8;;;4.1;;
74483;SDS011;62942;52.462;10.846;2024-02-16T01:39:23;3;;;5.1;;
74483;SDS011;62942;52.462;10.846;2024-02-16T01:40:33;3;;;5.3;;
74483;SDS011;62942;52.462;10.846;2024-02-16T01:41:33;2.9;;;5.7;;
74483;SDS011;62942;52.462;10.846;2024-02-16T01:42:43;2.9;;;4.9;;
74483;SDS011;62942;52.462;10.846;2024-02-16T01:43:43;3;;;6.4;;
74483;SDS011;62942;52.462;10.846;2024-02-16T01:44:53;2.8;;;7.1;;
74483;SDS011;62942;52.462;10.846;2024-02-16T01:46:03;2.9;;;5.6;;
74483;SDS011;62942;52.462;10.846;2024-02-16T01:47:13;2.9;;;6;;
74483;SDS011;62942;52.462;10.846;2024-02-16T01:48:13;2.9;;;6;;
74483;SDS011;62942;52.462;10.846;2024-02-16T01:49:23;2.8;;;5;;
74483;SDS011;62942;52.462;10.846;2024-02-16T01:50:33;3;;;5.4;;
74483;SDS011;62942;52.462;10.846;2024-02-16T01:51:43;3.1;;;6.2;;
74483;SDS011;62942;52.462;10.846;2024-02-16T01:52:45;3.1;;;6.1;;
74483;SDS011;62942;52.462;10.846;2024-02-16T01:53:43;3;;;4.9;;
74483;SDS011;62942;52.462;10.846;2024-02-16T01:54:53;2.8;;;5.1;;
74483;SDS011;62942;52.462;10.846;2024-02-16T01:55:53;3;;;5.8;;
74483;SDS011;62942;52.462;10.846;2024-02-16T01:57:03;2.6;;;5.1;;
74483;SDS011;62942;52.462;10.846;2024-02-16T01:58:03;2.8;;;5.3;;
74483;SDS011;62942;52.462;10.846;2024-02-16T01:59:13;2.8;;;6.6;;
74483;SDS011;62942;52.462;10.846;2024-02-16T02:00:23;2.8;;;5.2;;
74483;SDS011;62942;52.462;10.846;2024-02-16T02:01:23;2.7;;;5.8;;
74483;SDS011;62942;52.462;10.846;2024-02-16T02:02:23;2.7;;;5.8;;
74483;SDS011;62942;52.462;10.846;2024-02-16T02:03:33;2.9;;;5.6;;
74483;SDS011;62942;52.462;10.846;2024-02-16T02:04:33;2.6;;;6;;
74483;SDS011;62942;52.462;10.846;2024-02-16T02:05:43;2.8;;;5.4;;
74483;SDS011;62942;52.462;10.846;2024-02-16T02:06:53;2.8;;;4.8;;
74483;SDS011;62942;52.462;10.846;2024-02-16T02:08:08;2.9;;;6.5;;
74483;SDS011;62942;52.462;10.846;2024-02-16T02:09:03;2.7;;;6.8;;
74483;SDS011;62942;52.462;10.846;2024-02-16T02:10:13;2.7;;;5.3;;
74483;SDS011;62942;52.462;10.846;2024-02-16T02:11:13;2.7;;;5.9;;
74483;SDS011;62942;52.462;10.846;2024-02-16T02:12:13;2.6;;;4.9;;
74483;SDS011;62942;52.462;10.846;2024-02-16T02:13:23;2.6;;;5.1;;
74483;SDS011;62942;52.462;10.846;2024-02-16T02:14:33;2.7;;;4.7;;
74483;SDS011;62942;52.462;10.846;2024-02-16T02:15:33;2.9;;;5.1;;
74483;SDS011;62942;52.462;10.846;2024-02-16T02:16:33;2.6;;;4.9;;
74483;SDS011;62942;52.462;10.846;2024-02-16T02:17:43;2.6;;;6.2;;
74483;SDS011;62942;52.462;10.846;2024-02-16T02:18:43;2.8;;;6.5;;
74483;SDS011;62942;52.462;10.846;2024-02-16T02:19:53;2.7;;;6;;
74483;SDS011;62942;52.462;10.846;2024-02-16T02:20:53;2.5;;;5.1;;
74483;SDS011;62942;52.462;10.846;2024-02-16T02:22:03;2.6;;;4.4;;
74483;SDS011;62942;52.462;10.846;2024-02-16T02:23:03;2.5;;;5.4;;
74483;SDS011;62942;52.462;10.846;2024-02-16T02:24:03;2.6;;;4.9;;
74483;SDS011;62942;52.462;10.846;2024-02-16T02:25:13;2.4;;;4.3;;
74483;SDS011;62942;52.462;10.846;2024-02-16T02:26:23;2.6;;;4.5;;
74483;SDS011;62942;52.462;10.846;2024-02-16T02:27:23;2.5;;;5.4;;
74483;SDS011;62942;52.462;10.846;2024-02-16T02:28:23;2.4;;;5.3;;
74483;SDS011;62942;52.462;10.846;2024-02-16T02:29:23;2.6;;;8.3;;
74483;SDS011;62942;52.462;10.846;2024-02-16T02:30:33;2.5;;;5.5;;
74483;SDS011;62942;52.462;10.846;2024-02-16T02:31:43;2.5;;;4.4;;
74483;SDS011;62942;52.462;10.846;2024-02-16T02:32:53;2.5;;;5.3;;
74483;SDS011;62942;52.462;10.846;2024-02-16T02:33:53;2.7;;;5.6;;
74483;SDS011;62942;52.462;10.846;2024-02-16T02:34:53;2.5;;;5.4;;
74483;SDS011;62942;52.462;10.846;2024-02-16T02:36:03;2.9;;;5.8;;
74483;SDS011;62942;52.462;10.846;2024-02-16T02:37:13;2.6;;;5.1;;
74483;SDS011;62942;52.462;10.846;2024-02-16T02:38:23;2.8;;;6.7;;
74483;SDS011;62942;52.462;10.846;2024-02-16T02:39:23;2.9;;;6.3;;
74483;SDS011;62942;52.462;10.846;2024-02-16T02:40:33;2.8;;;6.1;;
74483;SDS011;62942;52.462;10.846;2024-02-16T02:41:43;2.9;;;6;;
74483;SDS011;62942;52.462;10.846;2024-02-16T02:42:43;2.8;;;5.3;;
74483;SDS011;62942;52.462;10.846;2024-02-16T02:43:53;3.1;;;6.2;;
74483;SDS011;62942;52.462;10.846;2024-02-16T02:44:53;2.9;;;5.6;;
74483;SDS011;62942;52.462;10.846;2024-02-16T02:46:03;2.8;;;5.4;;
74483;SDS011;62942;52.462;10.846;2024-02-16T02:47:13;3;;;5.8;;
74483;SDS011;62942;52.462;10.846;2024-02-16T02:48:23;3.2;;;6.6;;
74483;SDS011;62942;52.462;10.846;2024-02-16T02:49:33;3.1;;;6.7;;
74483;SDS011;62942;52.462;10.846;2024-02-16T02:50:43;3.3;;;5.6;;
74483;SDS011;62942;52.462;10.846;2024-02-16T02:51:53;3.4;;;6;;
74483;SDS011;62942;52.462;10.846;2024-02-16T02:52:53;3.2;;;5.7;;
74483;SDS011;62942;52.462;10.846;2024-02-16T02:53:53;3.2;;;5;;
74483;SDS011;62942;52.462;10.846;2024-02-16T02:54:53;3;;;5.1;;
74483;SDS011;62942;52.462;10.846;2024-02-16T02:56:03;3.3;;;6.4;;
74483;SDS011;62942;52.462;10.846;2024-02-16T02:57:03;3.3;;;6.2;;
74483;SDS011;62942;52.462;10.846;2024-02-16T02:58:13;3.3;;;5.9;;
74483;SDS011;62942;52.462;10.846;2024-02-16T02:59:13;3.4;;;6.1;;
74483;SDS011;62942;52.462;10.846;2024-02-16T03:00:23;3.5;;;6.1;;
74483;SDS011;62942;52.462;10.846;2024-02-16T03:01:33;3.4;;;6.7;;
74483;SDS011;62942;52.462;10.846;2024-02-16T03:02:43;3.4;;;5.8;;
74483;SDS011;62942;52.462;10.846;2024-02-16T03:03:53;3.3;;;6.2;;
74483;SDS011;62942;52.462;10.846;2024-02-16T03:05:03;3.5;;;6.3;;
74483;SDS011;62942;52.462;10.846;2024-02-16T03:06:16;3.3;;;6.1;;
74483;SDS011;62942;52.462;10.846;2024-02-16T03:07:13;3.3;;;6.5;;
74483;SDS011;62942;52.462;10.846;2024-02-16T03:08:23;3.5;;;6;;
74483;SDS011;62942;52.462;10.846;2024-02-16T03:09:23;3.7;;;6.2;;
74483;SDS011;62942;52.462;10.846;2024-02-16T03:10:33;3.4;;;5.6;;
74483;SDS011;62942;52.462;10.846;2024-02-16T03:11:33;3.3;;;4.7;;
74483;SDS011;62942;52.462;10.846;2024-02-16T03:12:43;3.6;;;6.1;;
74483;SDS011;62942;52.462;10.846;2024-02-16T03:13:53;3.4;;;8.1;;
74483;SDS011;62942;52.462;10.846;2024-02-16T03:15:03;3.3;;;5.5;;
74483;SDS011;62942;52.462;10.846;2024-02-16T03:16:13;3.8;;;6.8;;
74483;SDS011;62942;52.462;10.846;2024-02-16T03:17:23;3.6;;;5.7;;
74483;SDS011;62942;52.462;10.846;2024-02-16T03:18:23;3.5;;;5.4;;
74483;SDS011;62942;52.462;10.846;2024-02-16T03:19:33;3.6;;;5.5;;
74483;SDS011;62942;52.462;10.846;2024-02-16T03:20:33;3.5;;;6.2;;
74483;SDS011;62942;52.462;10.846;2024-02-16T03:21:43;3.5;;;6.4;;
74483;SDS011;62942;52.462;10.846;2024-02-16T03:22:43;3.5;;;5.3;;
74483;SDS011;62942;52.462;10.846;2024-02-16T03:23:53;3.3;;;6;;
74483;SDS011;62942;52.462;10.846;2024-02-16T03:25:03;3.7;;;8.6;;
74483;SDS011;62942;52.462;10.846;2024-02-16T03:26:03;3.5;;;5.4;;
74483;SDS011;62942;52.462;10.846;2024-02-16T03:27:13;3.7;;;6.7;;
74483;SDS011;62942;52.462;10.846;2024-02-16T03:28:13;3.5;;;7;;
74483;SDS011;62942;52.462;10.846;2024-02-16T03:29:13;3.7;;;7.2;;
74483;SDS011;62942;52.462;10.846;2024-02-16T03:30:13;3.7;;;6.2;;
74483;SDS011;62942;52.462;10.846;2024-02-16T03:31:15;3.8;;;7.8;;
74483;SDS011;62942;52.462;10.846;2024-02-16T03:32:23;3.6;;;5.5;;
74483;SDS011;62942;52.462;10.846;2024-02-16T03:33:33;3.8;;;6.7;;
74483;SDS011;62942;52.462;10.846;2024-02-16T03:34:33;3.6;;;8.1;;
74483;SDS011;62942;52.462;10.846;2024-02-16T03:35:43;3.4;;;5.2;;
74483;SDS011;62942;52.462;10.846;2024-02-16T03:36:43;3.6;;;7.6;;
74483;SDS011;62942;52.462;10.846;2024-02-16T03:37:53;3.9;;;6.2;;
74483;SDS011;62942;52.462;10.846;2024-02-16T03:39:03;3.8;;;6.5;;
74483;SDS011;62942;52.462;10.846;2024-02-16T03:40:04;3.7;;;6.3;;
74483;SDS011;62942;52.462;10.846;2024-02-16T03:41:05;3.3;;;5;;
74483;SDS011;62942;52.462;10.846;2024-02-16T03:42:13;3.7;;;8.4;;
74483;SDS011;62942;52.462;10.846;2024-02-16T03:43:13;4;;;7.1;;
74483;SDS011;62942;52.462;10.846;2024-02-16T03:44:23;3.7;;;6.4;;
74483;SDS011;62942;52.462;10.846;2024-02-16T03:45:33;3.6;;;6.4;;
74483;SDS011;62942;52.462;10.846;2024-02-16T03:46:33;3.6;;;7.5;;
74483;SDS011;62942;52.462;10.846;2024-02-16T03:47:43;3.8;;;6.8;;
74483;SDS011;62942;52.462;10.846;2024-02-16T03:48:53;3.3;;;5.3;;
74483;SDS011;62942;52.462;10.846;2024-02-16T03:50:03;3.5;;;6.8;;
74483;SDS011;62942;52.462;10.846;2024-02-16T03:51:13;3.5;;;6;;
74483;SDS011;62942;52.462;10.846;2024-02-16T03:52:23;3.6;;;7;;
74483;SDS011;62942;52.462;10.846;2024-02-16T03:53:23;3.3;;;5.3;;
74483;SDS011;62942;52.462;10.846;2024-02-16T03:54:33;3.4;;;5.8;;
74483;SDS011;62942;52.462;10.846;2024-02-16T03:55:43;3.7;;;6.7;;
74483;SDS011;62942;52.462;10.846;2024-02-16T03:56:43;3.5;;;6.5;;
74483;SDS011;62942;52.462;10.846;2024-02-16T03:57:43;3.5;;;6;;
74483;SDS011;62942;52.462;10.846;2024-02-16T03:58:53;3.4;;;4.9;;
74483;SDS011;62942;52.462;10.846;2024-02-16T04:00:03;3.7;;;7.1;;
74483;SDS011;62942;52.462;10.846;2024-02-16T04:01:03;3.4;;;5.9;;
74483;SDS011;62942;52.462;10.846;2024-02-16T04:02:03;3.4;;;5.7;;
74483;SDS011;62942;52.462;10.846;2024-02-16T04:03:13;3.7;;;6.3;;
74483;SDS011;62942;52.462;10.846;2024-02-16T04:04:23;3.5;;;5.9;;
74483;SDS011;62942;52.462;10.846;2024-02-16T04:05:33;3.4;;;6.4;;
74483;SDS011;62942;52.462;10.846;2024-02-16T04:06:43;3.5;;;5.8;;
74483;SDS011;62942;52.462;10.846;2024-02-16T04:07:53;3.5;;;5.6;;
74483;SDS011;62942;52.462;10.846;2024-02-16T04:09:03;3.5;;;6.1;;
74483;SDS011;62942;52.462;10.846;2024-02-16T04:10:13;3.6;;;6.1;;
74483;SDS011;62942;52.462;10.846;2024-02-16T04:11:23;3.9;;;8.3;;
74483;SDS011;62942;52.462;10.846;2024-02-16T04:12:23;4.2;;;10.5;;
74483;SDS011;62942;52.462;10.846;2024-02-16T04:13:33;3.7;;;6;;
74483;SDS011;62942;52.462;10.846;2024-02-16T04:14:43;3.7;;;6.9;;
74483;SDS011;62942;52.462;10.846;2024-02-16T04:15:53;3.4;;;6.4;;
74483;SDS011;62942;52.462;10.846;2024-02-16T04:17:03;3.7;;;6.1;;
74483;SDS011;62942;52.462;10.846;2024-02-16T04:18:13;3.4;;;5.4;;
74483;SDS011;62942;52.462;10.846;2024-02-16T04:19:23;3.5;;;7.1;;
74483;SDS011;62942;52.462;10.846;2024-02-16T04:20:23;3.7;;;5.8;;
74483;SDS011;62942;52.462;10.846;2024-02-16T04:21:23;3.4;;;5.9;;
74483;SDS011;62942;52.462;10.846;2024-02-16T04:22:33;3.5;;;6.4;;
74483;SDS011;62942;52.462;10.846;2024-02-16T04:23:33;3.5;;;6.9;;
74483;SDS011;62942;52.462;10.846;2024-02-16T04:24:43;3.2;;;6;;
74483;SDS011;62942;52.462;10.846;2024-02-16T04:25:53;3.5;;;6.3;;
74483;SDS011;62942;52.462;10.846;2024-02-16T04:27:03;3.3;;;7.1;;
74483;SDS011;62942;52.462;10.846;2024-02-16T04:28:13;3.2;;;5.3;;
74483;SDS011;62942;52.462;10.846;2024-02-16T04:29:13;3.4;;;6.4;;
74483;SDS011;62942;52.462;10.846;2024-02-16T04:30:23;3.3;;;5.7;;
74483;SDS011;62942;52.462;10.846;2024-02-16T04:31:23;3.3;;;6.1;;
74483;SDS011;62942;52.462;10.846;2024-02-16T04:32:23;3.3;;;7.6;;
74483;SDS011;62942;52.462;10.846;2024-02-16T04:33:23;3.4;;;6.1;;
74483;SDS011;62942;52.462;10.846;2024-02-16T04:34:33;3.4;;;5.9;;
74483;SDS011;62942;52.462;10.846;2024-02-16T04:35:33;3.2;;;5.5;;
74483;SDS011;62942;52.462;10.846;2024-02-16T04:36:43;3.3;;;6;;
74483;SDS011;62942;52.462;10.846;2024-02-16T04:37:43;3.3;;;5.8;;
74483;SDS011;62942;52.462;10.846;2024-02-16T04:38:53;3.2;;;6.8;;
74483;SDS011;62942;52.462;10.846;2024-02-16T04:40:03;3.4;;;5.3;;
74483;SDS011;62942;52.462;10.846;2024-02-16T04:41:13;3.3;;;6.3;;
74483;SDS011;62942;52.462;10.846;2024-02-16T04:42:23;3.2;;;4.8;;
74483;SDS011;62942;52.462;10.846;2024-02-16T04:43:23;3;;;6.6;;
74483;SDS011;62942;52.462;10.846;2024-02-16T04:44:23;3.1;;;6.8;;
74483;SDS011;62942;52.462;10.846;2024-02-16T04:45:23;3.1;;;5.1;;
74483;SDS011;62942;52.462;10.846;2024-02-16T04:46:33;3.1;;;6.7;;
74483;SDS011;62942;52.462;10.846;2024-02-16T04:47:43;3.1;;;6.5;;
74483;SDS011;62942;52.462;10.846;2024-02-16T04:48:53;3.5;;;6.3;;
74483;SDS011;62942;52.462;10.846;2024-02-16T04:49:53;3.2;;;6.9;;
74483;SDS011;62942;52.462;10.846;2024-02-16T04:50:53;3.2;;;5.9;;
74483;SDS011;62942;52.462;10.846;2024-02-16T04:52:03;3;;;5;;
74483;SDS011;62942;52.462;10.846;2024-02-16T04:53:13;2.7;;;6.4;;
74483;SDS011;62942;52.462;10.846;2024-02-16T04:54:23;3;;;4.9;;
74483;SDS011;62942;52.462;10.846;2024-02-16T04:55:23;3;;;7;;
74483;SDS011;62942;52.462;10.846;2024-02-16T04:56:33;2.9;;;6.1;;
74483;SDS011;62942;52.462;10.846;2024-02-16T04:57:33;3;;;6.5;;
74483;SDS011;62942;52.462;10.846;2024-02-16T04:58:33;3.1;;;5.1;;
74483;SDS011;62942;52.462;10.846;2024-02-16T04:59:43;3.2;;;9.4;;
74483;SDS011;62942;52.462;10.846;2024-02-16T05:00:53;2.8;;;5.5;;
74483;SDS011;62942;52.462;10.846;2024-02-16T05:01:53;3;;;5.9;;
74483;SDS011;62942;52.462;10.846;2024-02-16T05:03:03;3;;;5.4;;
74483;SDS011;62942;52.462;10.846;2024-02-16T05:04:13;2.7;;;4.9;;
74483;SDS011;62942;52.462;10.846;2024-02-16T05:05:13;3;;;7;;
74483;SDS011;62942;52.462;10.846;2024-02-16T05:06:23;2.9;;;5.4;;
74483;SDS011;62942;52.462;10.846;2024-02-16T05:07:23;3;;;4.9;;
74483;SDS011;62942;52.462;10.846;2024-02-16T05:08:23;2.8;;;5.2;;
74483;SDS011;62942;52.462;10.846;2024-02-16T05:09:33;3.1;;;6.5;;
74483;SDS011;62942;52.462;10.846;2024-02-16T05:10:33;2.8;;;5.6;;
74483;SDS011;62942;52.462;10.846;2024-02-16T05:11:43;2.9;;;7;;
74483;SDS011;62942;52.462;10.846;2024-02-16T05:12:43;3.3;;;6.6;;
74483;SDS011;62942;52.462;10.846;2024-02-16T05:13:53;3.2;;;6;;
74483;SDS011;62942;52.462;10.846;2024-02-16T05:15:03;3;;;5.9;;
74483;SDS011;62942;52.462;10.846;2024-02-16T05:16:13;3.1;;;7.3;;
74483;SDS011;62942;52.462;10.846;2024-02-16T05:17:13;3;;;5.9;;
74483;SDS011;62942;52.462;10.846;2024-02-16T05:18:13;2.9;;;5.5;;
74483;SDS011;62942;52.462;10.846;2024-02-16T05:19:23;3;;;6.5;;
74483;SDS011;62942;52.462;10.846;2024-02-16T05:20:23;3.1;;;6.2;;
74483;SDS011;62942;52.462;10.846;2024-02-16T05:21:33;3;;;5.8;;
74483;SDS011;62942;52.462;10.846;2024-02-16T05:22:33;3.3;;;6.6;;
74483;SDS011;62942;52.462;10.846;2024-02-16T05:23:43;3;;;6.1;;
74483;SDS011;62942;52.462;10.846;2024-02-16T05:24:43;3.1;;;5.4;;
74483;SDS011;62942;52.462;10.846;2024-02-16T05:25:53;3.1;;;5.1;;
74483;SDS011;62942;52.462;10.846;2024-02-16T05:27:03;3.1;;;6.5;;
74483;SDS011;62942;52.462;10.846;2024-02-16T05:28:03;3.2;;;5.2;;
74483;SDS011;62942;52.462;10.846;2024-02-16T05:29:03;3.3;;;7;;
74483;SDS011;62942;52.462;10.846;2024-02-16T05:30:13;3.2;;;5.4;;
74483;SDS011;62942;52.462;10.846;2024-02-16T05:31:13;3;;;6;;
74483;SDS011;62942;52.462;10.846;2024-02-16T05:32:23;3.1;;;5.5;;
74483;SDS011;62942;52.462;10.846;2024-02-16T05:33:23;3.5;;;7.5;;
74483;SDS011;62942;52.462;10.846;2024-02-16T05:34:33;3;;;6.1;;
74483;SDS011;62942;52.462;10.846;2024-02-16T05:35:42;3;;;4.5;;
74483;SDS011;62942;52.462;10.846;2024-02-16T05:36:43;3.2;;;5.4;;
74483;SDS011;62942;52.462;10.846;2024-02-16T05:37:52;3.2;;;6.4;;
74483;SDS011;62942;52.462;10.846;2024-02-16T05:38:53;2.9;;;4.9;;
74483;SDS011;62942;52.462;10.846;2024-02-16T05:40:03;3;;;5.5;;
74483;SDS011;62942;52.462;10.846;2024-02-16T05:41:02;3.2;;;5.9;;
74483;SDS011;62942;52.462;10.846;2024-02-16T05:42:13;3;;;4.3;;
74483;SDS011;62942;52.462;10.846;2024-02-16T05:43:22;3.2;;;6.6;;
74483;SDS011;62942;52.462;10.846;2024-02-16T05:44:23;3.1;;;5.7;;
74483;SDS011;62942;52.462;10.846;2024-02-16T05:45:33;3.2;;;5.7;;
74483;SDS011;62942;52.462;10.846;2024-02-16T05:46:44;3.1;;;5.8;;
74483;SDS011;62942;52.462;10.846;2024-02-16T05:47:52;3.1;;;6.6;;
74483;SDS011;62942;52.462;10.846;2024-02-16T05:49:03;3;;;5;;
74483;SDS011;62942;52.462;10.846;2024-02-16T05:50:13;3.1;;;6.1;;
74483;SDS011;62942;52.462;10.846;2024-02-16T05:51:12;3;;;5;;
74483;SDS011;62942;52.462;10.846;2024-02-16T05:52:13;3.1;;;5.5;;
74483;SDS011;62942;52.462;10.846;2024-02-16T05:53:23;3;;;7.1;;
74483;SDS011;62942;52.462;10.846;2024-02-16T05:54:32;2.9;;;5.7;;
74483;SDS011;62942;52.462;10.846;2024-02-16T05:55:32;3.1;;;8;;
74483;SDS011;62942;52.462;10.846;2024-02-16T05:56:42;3.3;;;6.7;;
74483;SDS011;62942;52.462;10.846;2024-02-16T05:57:53;3.1;;;6.3;;
74483;SDS011;62942;52.462;10.846;2024-02-16T05:59:02;2.9;;;5.7;;
74483;SDS011;62942;52.462;10.846;2024-02-16T06:00:03;2.7;;;5.2;;
74483;SDS011;62942;52.462;10.846;2024-02-16T06:01:12;3.2;;;5.8;;
74483;SDS011;62942;52.462;10.846;2024-02-16T06:02:23;2.8;;;6.1;;
74483;SDS011;62942;52.462;10.846;2024-02-16T06:03:32;2.9;;;5.6;;
74483;SDS011;62942;52.462;10.846;2024-02-16T06:04:32;2.8;;;7.3;;
74483;SDS011;62942;52.462;10.846;2024-02-16T06:05:43;3.2;;;7;;
74483;SDS011;62942;52.462;10.846;2024-02-16T06:06:52;3;;;5.2;;
74483;SDS011;62942;52.462;10.846;2024-02-16T06:08:03;3;;;7;;
74483;SDS011;62942;52.462;10.846;2024-02-16T06:09:12;3;;;5.3;;
74483;SDS011;62942;52.462;10.846;2024-02-16T06:10:22;3.1;;;5.9;;
74483;SDS011;62942;52.462;10.846;2024-02-16T06:11:23;3.1;;;5.6;;
74483;SDS011;62942;52.462;10.846;2024-02-16T06:12:23;3;;;6.6;;
74483;SDS011;62942;52.462;10.846;2024-02-16T06:13:32;3;;;5.5;;
74483;SDS011;62942;52.462;10.846;2024-02-16T06:14:43;2.9;;;5.3;;
74483;SDS011;62942;52.462;10.846;2024-02-16T06:15:42;3;;;6;;
74483;SDS011;62942;52.462;10.846;2024-02-16T06:16:53;3.1;;;7.6;;
74483;SDS011;62942;52.462;10.846;2024-02-16T06:18:03;3;;;4.4;;
74483;SDS011;62942;52.462;10.846;2024-02-16T06:19:03;3.2;;;5.6;;
74483;SDS011;62942;52.462;10.846;2024-02-16T06:20:12;2.9;;;5.1;;
74483;SDS011;62942;52.462;10.846;2024-02-16T06:21:22;3.2;;;5.7;;
74483;SDS011;62942;52.462;10.846;2024-02-16T06:22:23;3.6;;;6.9;;
74483;SDS011;62942;52.462;10.846;2024-02-16T06:23:22;3.1;;;5.3;;
74483;SDS011;62942;52.462;10.846;2024-02-16T06:24:32;3.1;;;5.1;;
74483;SDS011;62942;52.462;10.846;2024-02-16T06:25:32;3.4;;;5.5;;
74483;SDS011;62942;52.462;10.846;2024-02-16T06:26:32;4.7;;;7.9;;
74483;SDS011;62942;52.462;10.846;2024-02-16T06:27:42;4.3;;;7.8;;
74483;SDS011;62942;52.462;10.846;2024-02-16T06:28:53;4.6;;;8.3;;
74483;SDS011;62942;52.462;10.846;2024-02-16T06:30:03;4.2;;;7.4;;
74483;SDS011;62942;52.462;10.846;2024-02-16T06:31:13;4.3;;;8.4;;
74483;SDS011;62942;52.462;10.846;2024-02-16T06:32:12;4.6;;;7.2;;
74483;SDS011;62942;52.462;10.846;2024-02-16T06:33:13;4.1;;;6.5;;
74483;SDS011;62942;52.462;10.846;2024-02-16T06:34:22;4.4;;;7.9;;
74483;SDS011;62942;52.462;10.846;2024-02-16T06:35:22;4.3;;;6.6;;
74483;SDS011;62942;52.462;10.846;2024-02-16T06:36:33;4.6;;;7.7;;
74483;SDS011;62942;52.462;10.846;2024-02-16T06:37:42;4.5;;;9.2;;
74483;SDS011;62942;52.462;10.846;2024-02-16T06:38:42;4.6;;;9.7;;
74483;SDS011;62942;52.462;10.846;2024-02-16T06:39:42;5.2;;;8.5;;
74483;SDS011;62942;52.462;10.846;2024-02-16T06:40:43;4.7;;;8;;
74483;SDS011;62942;52.462;10.846;2024-02-16T06:41:52;4.6;;;8.3;;
74483;SDS011;62942;52.462;10.846;2024-02-16T06:42:53;4.5;;;6.6;;
74483;SDS011;62942;52.462;10.846;2024-02-16T06:44:02;5.8;;;10.2;;
74483;SDS011;62942;52.462;10.846;2024-02-16T06:45:13;5.8;;;9.8;;
74483;SDS011;62942;52.462;10.846;2024-02-16T06:46:12;5.5;;;7.9;;